Accueil
METAR-TAF:

METAR-TAF

Aéroports :

Gilze-Rijen, Pays-Bas

latitude: 51-34N, longitude: 004-56E, altitude: 15 m

Observation

Le bulletin a été fait il y a 10 minutes, à 11:55 UTC
Vent 8 kt de est, variant entre nord-est et sud-est
Température 21°C
Humidité 56%
Pression 1008 hPa
Visibilité 10 km ou plus
Ciel couvert à une hauteur de 10000 ft

METAR: EHGR 271155Z AUTO 09008KT 050V140 9999 OVC100 21/12 Q1008 BLU

Heure: 14:05 (12:05 UTC)


TAF: absent

Observations et prévisions météorologiques de plus de 4000 aéroports (messages METAR et TAF).

Les stations disponibles sont représentées par des disques jaunes et rouges sur la carte.

Passer la souris dessus pour voir le nom de la station.

Cliquer dessus pour voir les observations et prévisions météorologiques.

Pour changer de carte: cliquez sur les boutons verts avec une croix noire pour zoomer, sur le bouton vert avec un tiret pour effectuer un zoom arrière, ou sur les flèches vertes pour les cartes adjacentes.


METAR-TAF: